Time;durP1;ratioP1;P1;durP2;ratioP2;P2;SDS_P1;SDS_P2;PMS_P1;PMS_P2;Temp;Humidity;BMP_temperature;BMP_pressure;BME280_temperature;BME280_humidity;BME280_pressure;Samples;Min_cycle;Max_cycle;Signal;HPM_P1;HPM_P2
2021/06/24 00:00:56;;;;;;;41.40;9.20;;;;;;;26.93;63.71;99943.91;5097511;28;20036;-68
2021/06/24 00:03:26;;;;;;;31.63;8.48;;;;;;;26.99;63.51;99937.44;5097288;28;20043;-67
2021/06/24 00:05:53;;;;;;;34.22;9.75;;;;;;;26.70;63.40;99904.41;5093827;28;20101;-69
2021/06/24 00:08:19;;;;;;;32.63;9.68;;;;;;;26.74;63.99;99926.44;5097896;28;20099;-69
2021/06/24 00:10:45;;;;;;;24.77;8.57;;;;;;;26.70;64.01;99920.69;5099500;28;20032;-67
2021/06/24 00:13:11;;;;;;;37.38;9.52;;;;;;;26.65;64.13;99914.44;5095378;28;20035;-67
2021/06/24 00:15:39;;;;;;;28.92;9.63;;;;;;;26.71;63.85;99914.19;5097441;28;20024;-66
2021/06/24 00:18:05;;;;;;;28.17;8.70;;;;;;;26.88;62.47;99919.44;5097045;28;20032;-66
2021/06/24 00:20:31;;;;;;;32.50;10.10;;;;;;;26.96;62.41;99932.50;5096734;28;20100;-66
2021/06/24 00:22:56;;;;;;;33.85;10.38;;;;;;;26.82;62.80;99936.78;5098485;28;20039;-68
2021/06/24 00:25:22;;;;;;;28.30;9.40;;;;;;;26.84;62.48;99929.19;5095659;28;20027;-66
2021/06/24 00:27:47;;;;;;;35.22;9.50;;;;;;;26.60;63.34;99920.66;5097254;28;20020;-68
2021/06/24 00:30:14;;;;;;;30.17;9.35;;;;;;;26.49;63.97;99918.94;5097590;28;20036;-66
2021/06/24 00:32:40;;;;;;;38.70;9.70;;;;;;;26.50;63.18;99907.00;5093733;28;20062;-67
2021/06/24 00:35:06;;;;;;;22.88;9.48;;;;;;;26.54;62.48;99904.59;5096378;28;20028;-66
2021/06/24 00:37:33;;;;;;;41.05;8.95;;;;;;;26.52;62.57;99910.28;5098759;28;20043;-69
2021/06/24 00:39:58;;;;;;;33.22;9.40;;;;;;;26.55;62.37;99915.19;5097088;28;20047;-66
2021/06/24 00:42:29;;;;;;;43.97;9.43;;;;;;;26.66;62.16;99908.72;5096502;28;20345;-68
2021/06/24 00:44:55;;;;;;;37.67;10.05;;;;;;;26.65;61.86;99907.09;5097902;28;20028;-67
2021/06/24 00:47:20;;;;;;;32.70;9.10;;;;;;;26.49;61.36;99891.81;5098743;28;20058;-67
2021/06/24 00:49:46;;;;;;;31.08;9.07;;;;;;;26.72;61.00;99904.13;5095833;28;20040;-68
2021/06/24 00:52:11;;;;;;;33.00;9.73;;;;;;;26.18;61.81;99898.09;5096972;28;20036;-66
2021/06/24 00:54:37;;;;;;;31.05;9.68;;;;;;;25.43;63.96;99900.63;5097517;28;20096;-67
2021/06/24 00:57:05;;;;;;;41.38;9.93;;;;;;;25.76;63.46;99904.22;5096577;28;20035;-67
2021/06/24 00:59:34;;;;;;;38.30;9.23;;;;;;;25.86;63.33;99915.16;5093721;28;20094;-68
2021/06/24 01:02:00;;;;;;;39.63;10.05;;;;;;;25.92;63.50;99914.13;5098048;28;20063;-66
2021/06/24 01:04:25;;;;;;;33.08;9.43;;;;;;;26.07;63.03;99925.16;5100238;28;20195;-67
2021/06/24 01:06:52;;;;;;;37.22;10.52;;;;;;;25.96;63.22;99925.28;5101661;28;20074;-68
2021/06/24 01:09:18;;;;;;;37.92;9.50;;;;;;;25.72;64.46;99927.50;5099045;28;20036;-68
2021/06/24 01:11:44;;;;;;;32.03;9.25;;;;;;;25.64;64.88;99927.94;5101332;28;20039;-66
2021/06/24 01:14:10;;;;;;;35.83;9.70;;;;;;;25.62;65.41;99924.69;5099926;28;20035;-67
2021/06/24 01:16:37;;;;;;;35.00;10.93;;;;;;;25.43;66.44;99922.31;5100158;28;20051;-69
2021/06/24 01:19:04;;;;;;;46.92;10.75;;;;;;;25.15;67.71;99919.84;5101298;28;20261;-67
2021/06/24 01:21:30;;;;;;;33.40;10.63;;;;;;;25.33;67.42;99914.09;5099651;28;20095;-67
2021/06/24 01:23:55;;;;;;;33.35;11.07;;;;;;;25.08;68.48;99906.47;5101089;28;20039;-68
2021/06/24 01:26:21;;;;;;;33.17;10.10;;;;;;;25.31;68.10;99921.66;5101160;28;20043;-67
2021/06/24 01:28:47;;;;;;;31.20;11.50;;;;;;;25.28;68.32;99919.44;5099713;28;20016;-68
2021/06/24 01:31:14;;;;;;;25.60;10.02;;;;;;;25.66;66.83;99915.81;5096768;28;20044;-68
2021/06/24 01:33:40;;;;;;;27.58;10.27;;;;;;;25.74;66.46;99919.94;5096253;28;20186;-68
2021/06/24 01:36:06;;;;;;;41.25;10.93;;;;;;;25.88;66.03;99925.75;5094737;28;20020;-66
2021/06/24 01:38:32;;;;;;;31.95;11.10;;;;;;;25.91;65.81;99933.38;5099899;28;20265;-68
2021/06/24 01:40:58;;;;;;;25.52;10.25;;;;;;;25.71;66.74;99936.72;5100328;28;20050;-68
2021/06/24 01:43:24;;;;;;;29.73;10.65;;;;;;;25.52;67.87;99935.41;5100731;28;20059;-68
2021/06/24 01:45:52;;;;;;;28.90;10.23;;;;;;;25.34;69.19;99933.88;5100015;28;20036;-66
2021/06/24 01:48:19;;;;;;;28.67;11.13;;;;;;;25.48;68.60;99943.25;5099493;28;20194;-68
2021/06/24 01:50:45;;;;;;;30.55;10.43;;;;;;;25.57;68.43;99938.19;5101418;28;20032;-69
2021/06/24 01:53:10;;;;;;;27.10;10.60;;;;;;;25.69;67.94;99949.72;5101909;28;20398;-67
2021/06/24 01:55:36;;;;;;;26.55;11.00;;;;;;;25.52;68.21;99936.25;5100276;28;20019;-66
2021/06/24 01:58:04;;;;;;;23.98;10.63;;;;;;;25.41;68.82;99937.19;5082261;28;20028;-67
2021/06/24 02:00:30;;;;;;;29.80;11.05;;;;;;;25.39;69.09;99931.22;5100449;28;20032;-66
2021/06/24 02:02:57;;;;;;;29.95;12.10;;;;;;;25.26;69.43;99935.16;5099132;28;20033;-66
2021/06/24 02:05:23;;;;;;;24.52;11.20;;;;;;;25.19;69.82;99934.53;5098693;28;20028;-68
2021/06/24 02:07:49;;;;;;;23.42;10.82;;;;;;;25.01;70.42;99940.25;5100029;28;20068;-68
2021/06/24 02:10:16;;;;;;;28.17;11.70;;;;;;;24.68;71.19;99911.31;5101958;28;20036;-69
2021/06/24 02:12:42;;;;;;;27.65;11.50;;;;;;;24.77;71.31;99937.72;5089907;28;20040;-67
2021/06/24 02:15:10;;;;;;;32.25;11.70;;;;;;;24.61;72.29;99933.16;5098542;28;20035;-68
2021/06/24 02:17:36;;;;;;;25.27;11.02;;;;;;;24.54;72.74;99942.53;5101440;28;20036;-67
2021/06/24 02:20:07;;;;;;;25.00;10.25;;;;;;;24.65;72.27;99928.88;5098503;28;20650;-68
2021/06/24 02:22:33;;;;;;;24.35;10.70;;;;;;;24.94;71.17;99928.72;5099070;28;20036;-68
2021/06/24 02:24:59;;;;;;;24.48;10.18;;;;;;;25.11;70.57;99932.25;5099870;28;20321;-66
2021/06/24 02:27:25;;;;;;;30.63;11.10;;;;;;;25.21;69.90;99934.25;5098728;28;20195;-66
2021/06/24 02:29:50;;;;;;;28.08;10.98;;;;;;;24.91;71.51;99934.66;5099846;28;20032;-66
2021/06/24 02:32:16;;;;;;;29.65;11.00;;;;;;;25.01;71.17;99935.66;5099028;28;20213;-68
2021/06/24 02:34:45;;;;;;;38.42;12.00;;;;;;;25.21;70.41;99929.66;5097964;28;20276;-68
2021/06/24 02:37:11;;;;;;;29.92;12.70;;;;;;;25.06;70.73;99927.59;5099033;28;20047;-67
2021/06/24 02:39:36;;;;;;;24.42;11.43;;;;;;;24.96;71.27;99927.41;5098665;28;20028;-67
2021/06/24 02:42:02;;;;;;;41.50;16.55;;;;;;;25.30;69.83;99935.44;5099979;28;20197;-66
2021/06/24 02:44:28;;;;;;;63.10;23.60;;;;;;;25.23;70.75;99932.94;5098500;28;20031;-67
2021/06/24 02:46:53;;;;;;;60.35;21.73;;;;;;;25.25;70.02;99940.81;5100006;28;20233;-68
2021/06/24 02:49:19;;;;;;;52.15;20.88;;;;;;;25.33;69.70;99941.19;5058510;28;20028;-68
2021/06/24 02:51:46;;;;;;;53.50;19.70;;;;;;;25.28;69.95;99946.56;5098291;28;20036;-66
2021/06/24 02:54:13;;;;;;;44.92;17.83;;;;;;;25.28;69.87;99941.13;5099373;28;20070;-68
2021/06/24 02:56:40;;;;;;;53.05;18.80;;;;;;;25.41;69.31;99935.31;5100494;28;20051;-66
2021/06/24 02:59:06;;;;;;;48.38;18.63;;;;;;;25.57;68.71;99927.34;5099579;28;20047;-68
2021/06/24 03:01:32;;;;;;;42.67;17.13;;;;;;;25.69;68.10;99922.59;5099090;28;20093;-68
2021/06/24 03:03:58;;;;;;;42.03;13.90;;;;;;;25.67;68.04;99927.47;5099281;28;20388;-68
2021/06/24 03:06:23;;;;;;;44.13;14.50;;;;;;;25.78;67.62;99927.31;5099002;28;20044;-68
2021/06/24 03:08:49;;;;;;;35.88;14.13;;;;;;;25.64;68.04;99926.06;5081874;28;20028;-66
2021/06/24 03:11:15;;;;;;;33.22;12.63;;;;;;;25.68;67.79;99915.53;5098439;28;20039;-67
2021/06/24 03:13:41;;;;;;;32.47;12.80;;;;;;;25.77;67.24;99919.44;5081894;28;20234;-66
2021/06/24 03:16:07;;;;;;;29.98;11.48;;;;;;;25.80;67.14;99924.34;5099780;28;20028;-68
2021/06/24 03:18:32;;;;;;;29.40;11.75;;;;;;;25.77;67.00;99922.13;5098368;28;20028;-67
2021/06/24 03:20:58;;;;;;;39.70;12.80;;;;;;;25.89;66.56;99921.97;5098895;28;20024;-68
2021/06/24 03:23:24;;;;;;;33.92;13.02;;;;;;;25.83;66.50;99925.72;5099082;28;20213;-68
2021/06/24 03:25:49;;;;;;;30.00;11.20;;;;;;;25.67;67.55;99922.03;5098023;28;20043;-67
2021/06/24 03:28:15;;;;;;;37.60;12.23;;;;;;;25.63;67.52;99910.03;5095383;28;20063;-68
2021/06/24 03:30:42;;;;;;;38.30;12.10;;;;;;;25.75;67.17;99916.16;5097857;28;20067;-66
2021/06/24 03:33:08;;;;;;;34.33;12.23;;;;;;;25.71;67.54;99923.16;5096981;28;20034;-69
2021/06/24 03:35:33;;;;;;;26.23;11.00;;;;;;;25.70;67.20;99913.41;5099134;28;20036;-68
2021/06/24 03:37:59;;;;;;;32.53;11.93;;;;;;;25.84;66.82;99925.47;5095965;28;20042;-66
2021/06/24 03:40:24;;;;;;;31.92;11.07;;;;;;;25.74;67.31;99928.91;5091806;28;20032;-67
2021/06/24 03:42:51;;;;;;;37.70;12.30;;;;;;;25.71;67.15;99931.31;5097286;28;20032;-68
2021/06/24 03:45:17;;;;;;;41.92;13.93;;;;;;;25.73;66.89;99927.25;5099355;28;20032;-68
2021/06/24 03:47:42;;;;;;;32.90;12.90;;;;;;;25.63;67.30;99929.84;5098145;28;20207;-68
2021/06/24 03:50:10;;;;;;;41.28;13.00;;;;;;;25.50;67.71;99930.25;5098051;28;20358;-67
2021/06/24 03:52:36;;;;;;;43.28;12.82;;;;;;;25.35;68.54;99927.38;5098996;28;20928;-67
2021/06/24 03:55:01;;;;;;;42.40;12.38;;;;;;;25.44;68.33;99934.81;5093466;28;20092;-68
2021/06/24 03:57:27;;;;;;;33.08;11.63;;;;;;;25.51;67.80;99937.31;5098930;28;20028;-67
2021/06/24 03:59:52;;;;;;;44.58;14.68;;;;;;;25.03;69.68;99941.66;5096825;28;20053;-67
2021/06/24 04:02:18;;;;;;;43.10;15.75;;;;;;;25.20;69.67;99952.41;5097083;28;20036;-66
2021/06/24 04:04:43;;;;;;;31.75;12.80;;;;;;;25.42;68.47;99953.22;5097185;28;20085;-68
2021/06/24 04:07:09;;;;;;;33.78;12.45;;;;;;;25.20;69.23;99947.00;5095322;28;20035;-66
2021/06/24 04:09:34;;;;;;;31.17;12.00;;;;;;;25.29;68.92;99944.66;5097655;28;20095;-68
2021/06/24 04:12:00;;;;;;;29.92;12.70;;;;;;;25.10;69.51;99944.16;5087450;28;20086;-69
2021/06/24 04:14:25;;;;;;;39.72;11.98;;;;;;;24.90;70.08;99941.13;5096755;28;20347;-68
2021/06/24 04:16:51;;;;;;;36.45;12.98;;;;;;;24.97;70.25;99937.22;5099172;28;20086;-68
2021/06/24 04:19:17;;;;;;;31.63;11.88;;;;;;;25.24;69.20;99944.59;5096672;28;20047;-66
2021/06/24 04:21:43;;;;;;;33.72;11.93;;;;;;;25.31;68.99;99946.03;5097767;28;20036;-68
2021/06/24 04:24:08;;;;;;;37.95;12.02;;;;;;;25.44;68.70;99939.41;5097063;28;20035;-68
2021/06/24 04:26:34;;;;;;;29.63;12.30;;;;;;;25.77;67.45;99935.69;5096956;28;20034;-68
2021/06/24 04:28:59;;;;;;;37.92;12.82;;;;;;;25.89;67.04;99932.81;5098322;28;20028;-68
2021/06/24 04:31:25;;;;;;;41.90;12.85;;;;;;;25.94;66.57;99930.16;5096456;28;20360;-68
2021/06/24 04:33:50;;;;;;;29.80;11.07;;;;;;;26.12;66.39;99929.78;5098032;28;20417;-68
2021/06/24 04:36:16;;;;;;;39.67;11.65;;;;;;;26.30;66.38;99923.97;5096803;28;20077;-67
2021/06/24 04:38:41;;;;;;;32.83;11.48;;;;;;;26.42;66.07;99926.50;5096098;28;20024;-67
2021/06/24 04:41:06;;;;;;;32.67;12.18;;;;;;;26.66;64.92;99930.47;5094528;28;20040;-68
2021/06/24 04:43:32;;;;;;;32.67;11.13;;;;;;;26.90;64.53;99935.47;5097212;28;20024;-68
2021/06/24 04:45:57;;;;;;;33.72;11.55;;;;;;;27.13;63.36;99932.38;5096173;28;20036;-67
2021/06/24 04:48:23;;;;;;;27.45;11.38;;;;;;;27.47;62.65;99938.19;5096263;28;20333;-68
2021/06/24 04:50:48;;;;;;;34.80;11.77;;;;;;;27.71;61.94;99935.00;5098227;28;20055;-68
2021/06/24 04:53:14;;;;;;;34.58;11.85;;;;;;;28.19;60.76;99934.50;5094902;28;20032;-68
2021/06/24 04:55:39;;;;;;;31.20;10.95;;;;;;;28.71;58.70;99933.34;5096457;28;20020;-67
2021/06/24 04:58:06;;;;;;;32.50;11.32;;;;;;;28.86;57.88;99925.16;5097342;28;20036;-68
2021/06/24 05:00:33;;;;;;;23.70;10.68;;;;;;;29.30;56.68;99923.63;5095372;28;20024;-69
2021/06/24 05:03:00;;;;;;;29.88;11.23;;;;;;;29.45;55.75;99923.56;5070633;28;20030;-66
2021/06/24 05:05:26;;;;;;;34.40;11.25;;;;;;;29.29;56.09;99936.44;5095306;28;20059;-67
2021/06/24 05:07:51;;;;;;;36.20;11.18;;;;;;;29.70;54.84;99933.50;5096662;28;20032;-68
2021/06/24 05:10:17;;;;;;;31.73;11.18;;;;;;;29.85;54.01;99941.56;5096332;28;20028;-67
2021/06/24 05:12:43;;;;;;;30.02;10.75;;;;;;;29.90;54.83;99946.19;5096541;28;20802;-68
2021/06/24 05:15:09;;;;;;;31.60;11.45;;;;;;;29.93;54.58;99949.16;5096897;28;20350;-69
2021/06/24 05:17:37;;;;;;;25.70;10.80;;;;;;;29.83;54.92;99943.75;5097887;28;20143;-69
2021/06/24 05:20:04;;;;;;;30.55;10.07;;;;;;;29.73;54.87;99946.56;5096911;28;20381;-69
2021/06/24 05:22:29;;;;;;;33.47;10.15;;;;;;;30.03;53.41;99938.19;5098173;28;20043;-67
2021/06/24 05:24:55;;;;;;;37.65;9.70;;;;;;;30.05;52.84;99935.16;5096245;28;20245;-67
2021/06/24 05:27:21;;;;;;;30.83;9.65;;;;;;;30.60;51.27;99933.88;5096659;28;20051;-69
2021/06/24 05:29:47;;;;;;;33.40;9.52;;;;;;;30.73;50.11;99929.63;5096563;28;20024;-67
2021/06/24 05:32:12;;;;;;;35.92;8.45;;;;;;;31.04;49.39;99924.63;5096307;28;20031;-67
2021/06/24 05:34:38;;;;;;;38.20;9.55;;;;;;;31.38;47.77;99919.03;5097285;28;20054;-69
2021/06/24 05:37:03;;;;;;;36.42;9.48;;;;;;;31.52;47.64;99927.31;5095643;28;20028;-69
2021/06/24 05:39:29;;;;;;;30.58;9.00;;;;;;;31.90;46.40;99930.84;5094698;28;20073;-67
2021/06/24 05:41:56;;;;;;;29.38;9.73;;;;;;;32.00;45.94;99927.94;5096159;28;20259;-69
2021/06/24 05:44:23;;;;;;;26.63;8.38;;;;;;;32.08;45.43;99930.00;5096920;28;20034;-69
2021/06/24 05:46:49;;;;;;;35.55;8.85;;;;;;;32.20;45.08;99927.59;5080516;28;20040;-69
2021/06/24 05:49:14;;;;;;;33.90;8.50;;;;;;;32.17;44.85;99927.38;5094608;28;20051;-69
2021/06/24 05:51:39;;;;;;;34.47;8.48;;;;;;;32.35;44.60;99934.78;5099283;28;20080;-69
2021/06/24 05:54:05;;;;;;;36.83;9.43;;;;;;;32.76;43.90;99936.75;5100340;28;20036;-67
2021/06/24 05:56:30;;;;;;;34.30;8.70;;;;;;;33.13;42.17;99938.50;5099626;28;20309;-69
2021/06/24 05:58:56;;;;;;;36.53;8.90;;;;;;;33.01;42.04;99931.59;5100101;28;20271;-67
2021/06/24 06:01:22;;;;;;;38.75;9.35;;;;;;;33.85;41.08;99936.66;5097701;28;20036;-67
2021/06/24 06:03:48;;;;;;;35.20;9.00;;;;;;;33.30;40.67;99942.28;5099782;28;20085;-69
2021/06/24 06:06:13;;;;;;;27.55;8.32;;;;;;;33.44;41.53;99938.72;5100035;28;20044;-67
2021/06/24 06:08:39;;;;;;;33.90;9.25;;;;;;;33.66;40.54;99929.69;5097963;28;20050;-67
2021/06/24 06:11:05;;;;;;;36.20;8.52;;;;;;;33.89;39.70;99918.44;5096493;28;20244;-67
2021/06/24 06:13:30;;;;;;;32.78;9.15;;;;;;;34.19;38.58;99929.78;5099639;28;20130;-67
2021/06/24 06:15:56;;;;;;;37.42;8.38;;;;;;;34.34;37.27;99926.69;5096284;28;20237;-69
2021/06/24 06:18:26;;;;;;;25.30;7.88;;;;;;;34.60;36.23;99929.56;5099303;28;20323;-69
2021/06/24 06:20:53;;;;;;;34.30;8.23;;;;;;;34.58;35.56;99931.81;5098512;28;20036;-69
2021/06/24 06:23:20;;;;;;;34.13;9.25;;;;;;;34.81;35.02;99936.09;5098454;28;20300;-69
2021/06/24 06:25:47;;;;;;;23.63;8.00;;;;;;;35.34;34.40;99924.16;5097178;28;20101;-69
2021/06/24 06:28:14;;;;;;;35.25;8.75;;;;;;;35.61;33.85;99930.50;5098199;28;20054;-69
2021/06/24 06:30:40;;;;;;;29.25;9.68;;;;;;;35.21;34.52;99925.88;5097271;28;20058;-67
2021/06/24 06:33:06;;;;;;;36.63;9.05;;;;;;;35.51;34.09;99926.94;5097288;28;20210;-69
2021/06/24 06:35:32;;;;;;;39.58;8.93;;;;;;;35.59;33.52;99932.78;5097428;28;20050;-69
2021/06/24 06:37:57;;;;;;;34.67;8.43;;;;;;;35.56;33.53;99938.94;5099256;28;20039;-69
2021/06/24 06:40:23;;;;;;;36.08;8.10;;;;;;;35.80;33.43;99942.84;5097353;28;20047;-69
2021/06/24 06:42:49;;;;;;;31.15;7.72;;;;;;;35.85;33.76;99944.63;5099276;28;20039;-68
2021/06/24 06:45:18;;;;;;;36.28;8.20;;;;;;;36.41;32.74;99942.75;5099028;28;20031;-69
2021/06/24 06:47:46;;;;;;;38.25;8.75;;;;;;;37.18;31.27;99941.63;5098366;28;20344;-69
2021/06/24 06:50:13;;;;;;;40.75;8.20;;;;;;;36.81;31.60;99937.78;5097910;28;20038;-67
2021/06/24 06:52:39;;;;;;;26.08;7.95;;;;;;;36.57;32.37;99940.28;5099072;28;20267;-67
2021/06/24 06:55:05;;;;;;;33.03;8.70;;;;;;;36.73;31.98;99944.13;5097710;28;20036;-67
2021/06/24 06:57:30;;;;;;;37.80;8.20;;;;;;;37.17;31.67;99937.25;5099340;28;20770;-67
2021/06/24 06:59:56;;;;;;;29.13;8.25;;;;;;;37.06;31.56;99930.50;5097152;28;20121;-67
2021/06/24 07:02:21;;;;;;;37.85;8.07;;;;;;;36.80;31.77;99935.34;5098498;28;20036;-67
2021/06/24 07:04:47;;;;;;;35.67;7.88;;;;;;;36.64;31.81;99933.13;5098627;28;20024;-68
2021/06/24 07:07:12;;;;;;;42.58;8.13;;;;;;;36.42;33.06;99939.69;5098314;28;20036;-67
2021/06/24 07:09:39;;;;;;;38.67;8.52;;;;;;;36.95;31.40;99930.06;5096975;28;20078;-67
2021/06/24 07:12:04;;;;;;;41.08;9.20;;;;;;;37.38;31.03;99921.53;5098063;28;20107;-69
2021/06/24 07:14:30;;;;;;;38.28;9.23;;;;;;;37.85;30.68;99926.06;5096386;28;20020;-67
2021/06/24 07:16:55;;;;;;;37.38;7.80;;;;;;;37.85;30.53;99935.19;5097331;28;20036;-67
2021/06/24 07:19:21;;;;;;;37.47;8.48;;;;;;;38.18;30.10;99929.66;5098675;28;20035;-69
2021/06/24 07:21:46;;;;;;;35.25;7.80;;;;;;;38.33;29.48;99934.53;5095976;28;20050;-67
2021/06/24 07:24:14;;;;;;;39.47;9.23;;;;;;;38.89;29.10;99939.59;5097324;28;20035;-69
2021/06/24 07:26:39;;;;;;;35.90;8.50;;;;;;;37.95;29.70;99928.41;5098058;28;20040;-68
2021/06/24 07:29:05;;;;;;;31.85;7.47;;;;;;;38.65;29.44;99937.63;5097768;28;20046;-69
2021/06/24 07:31:30;;;;;;;35.95;8.50;;;;;;;39.18;28.48;99927.47;5098019;28;20035;-67
2021/06/24 07:33:56;;;;;;;31.80;7.93;;;;;;;38.89;28.64;99920.22;5097075;28;20036;-67
2021/06/24 07:36:21;;;;;;;30.98;7.72;;;;;;;38.82;28.07;99928.28;5097138;28;20077;-67
2021/06/24 07:38:47;;;;;;;34.42;8.25;;;;;;;39.22;28.06;99923.66;5098027;28;20036;-69
2021/06/24 07:41:13;;;;;;;36.88;8.55;;;;;;;39.25;27.42;99909.13;5095736;28;20180;-68
2021/06/24 07:43:38;;;;;;;29.40;7.57;;;;;;;39.06;27.78;99914.47;5096730;28;20070;-67
2021/06/24 07:46:04;;;;;;;36.85;7.35;;;;;;;39.67;27.15;99911.56;5096384;28;20044;-68
2021/06/24 07:48:29;;;;;;;30.30;8.10;;;;;;;39.80;26.82;99904.00;5094905;28;20214;-69
2021/06/24 07:50:55;;;;;;;34.83;8.18;;;;;;;39.87;27.75;99909.75;5097364;28;20035;-67
2021/06/24 07:53:20;;;;;;;32.70;7.18;;;;;;;39.22;27.32;99909.00;5096503;28;20028;-69
2021/06/24 07:55:46;;;;;;;36.15;7.90;;;;;;;39.25;27.54;99906.34;5081632;28;20028;-68
2021/06/24 07:58:11;;;;;;;34.15;7.47;;;;;;;38.86;28.00;99909.84;5102154;28;20351;-69
2021/06/24 08:00:38;;;;;;;33.40;7.95;;;;;;;39.07;27.66;99910.53;5101789;28;20099;-68
2021/06/24 08:03:04;;;;;;;35.53;8.32;;;;;;;39.14;27.54;99901.63;5101394;28;20048;-67
2021/06/24 08:05:30;;;;;;;36.45;7.90;;;;;;;39.50;27.27;99898.78;5101559;28;20043;-70
2021/06/24 08:07:55;;;;;;;32.28;7.10;;;;;;;39.30;28.15;99908.06;5101562;28;20329;-69
2021/06/24 08:10:21;;;;;;;34.72;7.95;;;;;;;39.81;26.02;99905.63;5101707;28;20031;-69
2021/06/24 08:12:48;;;;;;;41.22;8.35;;;;;;;40.11;26.36;99904.09;5100757;28;20040;-67
2021/06/24 08:15:15;;;;;;;25.95;7.78;;;;;;;40.11;26.88;99906.88;5101702;28;20032;-68
2021/06/24 08:17:42;;;;;;;29.15;7.55;;;;;;;40.10;26.38;99896.94;5101778;28;20032;-69
2021/06/24 08:20:09;;;;;;;39.90;8.43;;;;;;;40.32;26.02;99905.81;5101585;28;20107;-67
2021/06/24 08:22:35;;;;;;;30.45;7.57;;;;;;;40.58;25.53;99902.53;5101735;28;20044;-67
2021/06/24 08:25:01;;;;;;;25.30;6.78;;;;;;;40.96;23.95;99897.16;5100008;28;20031;-69
2021/06/24 08:27:26;;;;;;;28.02;7.55;;;;;;;41.02;23.72;99904.03;5101909;28;20043;-67
2021/06/24 08:29:52;;;;;;;25.58;6.55;;;;;;;40.64;24.51;99910.25;5101267;28;20032;-67
2021/06/24 08:32:17;;;;;;;29.33;7.03;;;;;;;40.33;27.16;99899.91;5101696;28;20053;-68
2021/06/24 08:34:43;;;;;;;20.65;6.93;;;;;;;39.96;25.69;99898.53;5083052;28;20073;-67
2021/06/24 08:37:09;;;;;;;41.63;7.38;;;;;;;40.06;26.56;99903.56;5101878;28;20073;-69
2021/06/24 08:39:35;;;;;;;26.27;6.30;;;;;;;40.20;25.95;99903.94;5101301;28;20306;-69
2021/06/24 08:42:02;;;;;;;26.48;6.38;;;;;;;40.64;24.23;99903.91;5101670;28;21144;-67
2021/06/24 08:44:27;;;;;;;32.08;7.03;;;;;;;40.32;24.88;99891.94;5101293;28;20035;-68
2021/06/24 08:46:58;;;;;;;32.25;6.65;;;;;;;40.08;25.07;99898.47;5101434;28;20047;-68
2021/06/24 08:49:26;;;;;;;21.25;6.70;;;;;;;39.97;26.15;99897.38;5101521;28;20095;-68
2021/06/24 08:51:56;;;;;;;18.92;5.95;;;;;;;39.36;27.15;99881.72;5101449;28;20040;-68
2021/06/24 08:54:22;;;;;;;23.80;6.60;;;;;;;39.42;26.18;99885.88;5096511;28;20020;-66
2021/06/24 08:56:48;;;;;;;33.67;6.38;;;;;;;39.82;25.45;99885.06;5094176;28;20036;-67
2021/06/24 08:59:14;;;;;;;26.60;5.68;;;;;;;39.23;24.91;99883.72;5096212;28;20040;-67
2021/06/24 09:01:53;;;;;;;25.60;5.80;;;;;;;39.22;25.34;99879.34;5093037;28;20179;-67
2021/06/24 09:04:30;;;;;;;26.88;6.90;;;;;;;39.43;25.44;99875.59;5075803;28;20032;-67
2021/06/24 09:07:13;;;;;;;25.88;5.30;;;;;;;39.47;24.88;99879.28;5058107;28;20063;-67
2021/06/24 09:09:50;;;;;;;34.05;7.25;;;;;;;39.34;24.73;99886.00;5094616;28;20027;-66
2021/06/24 09:12:16;;;;;;;28.42;6.40;;;;;;;39.40;26.11;99877.09;5095123;28;20469;-68
2021/06/24 09:14:43;;;;;;;25.00;6.10;;;;;;;39.30;24.56;99885.91;5091896;28;20044;-67
2021/06/24 09:17:10;;;;;;;26.67;5.75;;;;;;;39.57;25.15;99876.06;5095984;28;20031;-67
2021/06/24 09:19:39;;;;;;;28.15;6.13;;;;;;;39.36;23.93;99870.66;5094252;28;20037;-67
2021/06/24 09:22:11;;;;;;;24.98;5.78;;;;;;;39.54;22.63;99869.25;5092567;28;20074;-67
2021/06/24 09:24:47;;;;;;;23.10;5.70;;;;;;;40.04;22.50;99867.88;5097786;28;20095;-67
2021/06/24 09:27:18;;;;;;;22.85;5.75;;;;;;;40.29;23.14;99867.69;5097906;28;20047;-69
2021/06/24 09:30:08;;;;;;;24.10;5.75;;;;;;;40.45;23.25;99866.56;5098875;28;20347;-67
2021/06/24 09:32:35;;;;;;;20.77;5.63;;;;;;;40.35;22.35;99866.25;5094733;28;20051;-68
2021/06/24 09:35:02;;;;;;;27.42;5.43;;;;;;;40.13;22.41;99862.16;5099914;28;20091;-67
2021/06/24 09:37:29;;;;;;;22.73;5.68;;;;;;;39.83;22.94;99867.28;5097255;28;20082;-69
2021/06/24 09:39:55;;;;;;;21.67;5.55;;;;;;;39.33;24.12;99859.47;5097487;28;20052;-68
2021/06/24 09:42:22;;;;;;;25.77;5.18;;;;;;;38.91;25.12;99857.00;5098702;28;20028;-68
2021/06/24 09:44:48;;;;;;;21.17;5.05;;;;;;;38.73;23.84;99852.88;5097857;28;20043;-69
2021/06/24 09:47:26;;;;;;;25.13;5.63;;;;;;;38.18;23.98;99859.72;5096001;28;20032;-66
2021/06/24 09:50:00;;;;;;;27.83;5.95;;;;;;;38.15;24.81;99857.66;5096974;28;20079;-68
2021/06/24 09:52:26;;;;;;;21.67;5.15;;;;;;;37.88;25.69;99850.78;5097342;28;20225;-68
2021/06/24 09:55:09;;;;;;;24.33;6.05;;;;;;;37.72;26.75;99850.59;5098709;28;20028;-66
2021/06/24 09:57:36;;;;;;;27.27;5.85;;;;;;;37.53;26.83;99853.03;5098553;28;20032;-69
2021/06/24 10:00:46;;;;;;;27.55;6.03;;;;;;;37.81;26.57;99851.31;5097471;28;20036;-69
2021/06/24 10:03:12;;;;;;;21.10;4.97;;;;;;;37.98;26.83;99844.81;5003800;28;20064;-67
2021/06/24 10:05:40;;;;;;;24.65;5.93;;;;;;;38.23;24.77;99845.69;5086129;28;20111;-68
2021/06/24 10:08:06;;;;;;;26.35;6.07;;;;;;;38.37;25.45;99843.38;5097042;28;20329;-67
2021/06/24 10:10:33;;;;;;;17.65;5.32;;;;;;;38.41;25.16;99844.31;5096088;28;20024;-67
2021/06/24 10:12:58;;;;;;;25.38;5.78;;;;;;;38.45;26.20;99841.66;5080417;28;20316;-67
2021/06/24 10:15:24;;;;;;;28.65;5.07;;;;;;;38.46;24.03;99827.47;5096216;28;20141;-67
2021/06/24 10:17:53;;;;;;;24.50;5.43;;;;;;;38.46;24.18;99830.25;5096524;28;20051;-68
2021/06/24 10:20:19;;;;;;;17.35;4.40;;;;;;;38.61;24.65;99826.03;5097701;28;20023;-68
2021/06/24 10:22:55;;;;;;;23.40;5.03;;;;;;;38.57;23.30;99833.38;5097012;28;21463;-69
2021/06/24 10:25:22;;;;;;;18.73;5.35;;;;;;;38.52;23.21;99819.78;5096462;28;20027;-69
2021/06/24 10:27:54;;;;;;;18.30;4.80;;;;;;;38.04;23.89;99835.13;5095828;28;20046;-66
2021/06/24 10:30:21;;;;;;;26.58;5.40;;;;;;;37.73;25.23;99824.59;5097231;28;20016;-68
2021/06/24 10:33:04;;;;;;;21.17;4.97;;;;;;;37.45;25.06;99820.75;5096581;28;20035;-68
2021/06/24 10:35:35;;;;;;;20.15;5.30;;;;;;;37.39;25.63;99818.19;5096110;28;20032;-68
2021/06/24 10:38:01;;;;;;;16.95;5.20;;;;;;;37.45;24.75;99818.00;5097206;28;20028;-68
2021/06/24 10:40:38;;;;;;;20.30;5.10;;;;;;;37.28;26.38;99814.25;5098531;28;20028;-66
2021/06/24 10:43:13;;;;;;;16.25;4.18;;;;;;;37.06;25.34;99820.91;5098258;28;20051;-68
2021/06/24 10:45:40;;;;;;;23.17;5.45;;;;;;;36.93;26.46;99812.88;5097711;28;20083;-68
2021/06/24 10:48:26;;;;;;;28.90;5.05;;;;;;;36.65;26.64;99816.13;5096677;28;20039;-66
2021/06/24 10:51:06;;;;;;;24.90;4.70;;;;;;;36.58;26.83;99810.31;5095582;28;20039;-68
2021/06/24 10:53:39;;;;;;;14.63;4.60;;;;;;;36.41;26.76;99802.97;5096287;28;20039;-66
2021/06/24 10:56:23;;;;;;;16.47;4.53;;;;;;;36.29;26.88;99802.03;5095774;28;20039;-66
2021/06/24 10:58:48;;;;;;;20.48;4.57;;;;;;;36.40;26.00;99797.75;5094290;28;20040;-66
2021/06/24 11:01:14;;;;;;;18.40;5.35;;;;;;;36.53;25.86;99802.25;5102028;28;20032;-68
2021/06/24 11:03:41;;;;;;;17.52;4.95;;;;;;;36.51;26.26;99800.97;5102627;28;20047;-68
2021/06/24 11:06:33;;;;;;;17.23;5.15;;;;;;;36.43;25.99;99795.16;5103294;28;20040;-66
2021/06/24 11:09:13;;;;;;;19.70;5.22;;;;;;;36.39;25.80;99790.59;5102948;28;20051;-66
2021/06/24 11:11:43;;;;;;;20.40;4.13;;;;;;;36.61;24.85;99795.06;5084647;28;20044;-68
2021/06/24 11:14:16;;;;;;;14.95;5.10;;;;;;;36.72;25.83;99783.28;5103163;28;20136;-66
2021/06/24 11:16:45;;;;;;;22.63;4.70;;;;;;;36.97;24.87;99791.75;5103505;28;20040;-67
2021/06/24 11:19:15;;;;;;;16.13;4.65;;;;;;;37.35;26.91;99784.13;5084314;28;20019;-66
2021/06/24 11:21:41;;;;;;;20.45;5.55;;;;;;;37.09;25.54;99787.09;5104267;28;20036;-68